Elizabeth — 9V8794 — position and weather

sailwx.info

Track history (hours):
 
Tides and Currents Weather Stations Pressure Air Temp Water Temp Dewpoint Dewpoint Depression Visibility Wind Speed Wind Dir Waves Ship Positions

Elizabeth

Last reported at 2016-Jan-30 20:19 UTC. Time now 2016-Feb-07 15:07 UTC.
Position S 27°15' E 034°08'.

Length 190 m; draft 11.1 m.

Type: Cargo ship. MMSI: 566073000.

Date/timePositionNaut miles runAvg speedWind from/ knotsBaromVisibWave heightAir tempDewpointWater temp
2016-Jan-30 20:19S 27°15' E 034°08'4112.8
2016-Jan-30 17:07S 27°43' E 033°34'2012.8
2016-Jan-30 15:32S 27°58' E 033°18'1412.6
2016-Jan-30 14:27S 28°07' E 033°07'3911.8
2016-Jan-30 11:08S 28°34' E 032°35'610.9
2016-Jan-30 10:33S 28°38' E 032°29'1111.1
2016-Jan-30 09:33S 28°44' E 032°19'1111.2
2016-Jan-30 08:33S 28°49' E 032°07'7 0.2
2016-Jan-28 14:10S 28°56' E 032°08'0 0.0
2016-Jan-28 13:19S 28°56' E 032°08'0 0.0
2016-Jan-28 12:31S 28°56' E 032°08'0 0.0
2016-Jan-28 11:31S 28°56' E 032°08'  
2016-Jan-23 19:18S 20°51' E 058°08'  
Track history (hours):
 
Tides and Currents Weather Stations Pressure Air Temp Water Temp Dewpoint Dewpoint Depression Visibility Wind Speed Wind Dir Waves Ship Positions

Elizabeth

Last reported at 2016-Jan-30 20:19 UTC. Time now 2016-Feb-07 15:07 UTC.
Position S 27°15' E 034°08'.

Length 190 m; draft 11.1 m.

Type: Cargo ship. MMSI: 566073000.

Date/timePositionNaut miles runAvg speedWind from/ knotsBaromVisibWave heightAir tempDewpointWater temp
2016-Jan-30 20:19S 27°15' E 034°08'4112.8
2016-Jan-30 17:07S 27°43' E 033°34'2012.8
2016-Jan-30 15:32S 27°58' E 033°18'1412.6
2016-Jan-30 14:27S 28°07' E 033°07'3911.8
2016-Jan-30 11:08S 28°34' E 032°35'610.9
2016-Jan-30 10:33S 28°38' E 032°29'1111.1
2016-Jan-30 09:33S 28°44' E 032°19'1111.2
2016-Jan-30 08:33S 28°49' E 032°07'7 0.2
2016-Jan-28 14:10S 28°56' E 032°08'0 0.0
2016-Jan-28 13:19S 28°56' E 032°08'0 0.0
2016-Jan-28 12:31S 28°56' E 032°08'0 0.0
2016-Jan-28 11:31S 28°56' E 032°08'  
2016-Jan-23 19:18S 20°51' E 058°08'  

Dump ship's entire track history